sensor_id;sensor_type;location;lat;lon;timestamp;P1;durP1;ratioP1;P2;durP2;ratioP2
21175;SDS011;10746;50.178;8.186;2023-04-25T00:01:27;14.10;;;8.70;;
21175;SDS011;10746;50.178;8.186;2023-04-25T00:03:53;14.60;;;8.37;;
21175;SDS011;10746;50.178;8.186;2023-04-25T00:06:20;12.23;;;8.27;;
21175;SDS011;10746;50.178;8.186;2023-04-25T00:08:51;12.50;;;7.60;;
21175;SDS011;10746;50.178;8.186;2023-04-25T00:11:19;12.87;;;7.93;;
21175;SDS011;10746;50.178;8.186;2023-04-25T00:13:46;11.80;;;7.63;;
21175;SDS011;10746;50.178;8.186;2023-04-25T00:16:14;10.50;;;7.33;;
21175;SDS011;10746;50.178;8.186;2023-04-25T00:18:41;12.30;;;7.67;;
21175;SDS011;10746;50.178;8.186;2023-04-25T00:21:08;12.03;;;7.90;;
21175;SDS011;10746;50.178;8.186;2023-04-25T00:23:35;10.37;;;7.50;;
21175;SDS011;10746;50.178;8.186;2023-04-25T00:26:02;9.53;;;7.10;;
21175;SDS011;10746;50.178;8.186;2023-04-25T00:28:30;9.97;;;6.60;;
21175;SDS011;10746;50.178;8.186;2023-04-25T00:30:57;10.60;;;7.77;;
21175;SDS011;10746;50.178;8.186;2023-04-25T00:33:24;10.97;;;7.83;;
21175;SDS011;10746;50.178;8.186;2023-04-25T00:35:51;11.63;;;7.63;;
21175;SDS011;10746;50.178;8.186;2023-04-25T00:38:18;12.47;;;7.90;;
21175;SDS011;10746;50.178;8.186;2023-04-25T00:40:44;14.33;;;8.13;;
21175;SDS011;10746;50.178;8.186;2023-04-25T00:43:11;12.33;;;7.97;;
21175;SDS011;10746;50.178;8.186;2023-04-25T00:45:39;14.13;;;8.83;;
21175;SDS011;10746;50.178;8.186;2023-04-25T00:48:06;12.80;;;8.30;;
21175;SDS011;10746;50.178;8.186;2023-04-25T00:50:33;15.70;;;8.80;;
21175;SDS011;10746;50.178;8.186;2023-04-25T00:53:00;18.03;;;9.30;;
21175;SDS011;10746;50.178;8.186;2023-04-25T00:55:28;18.57;;;9.80;;
21175;SDS011;10746;50.178;8.186;2023-04-25T00:57:56;20.93;;;9.17;;
21175;SDS011;10746;50.178;8.186;2023-04-25T01:00:23;16.87;;;9.37;;
21175;SDS011;10746;50.178;8.186;2023-04-25T01:02:51;15.83;;;9.50;;
21175;SDS011;10746;50.178;8.186;2023-04-25T01:05:18;18.83;;;9.63;;
21175;SDS011;10746;50.178;8.186;2023-04-25T01:07:46;16.23;;;10.40;;
21175;SDS011;10746;50.178;8.186;2023-04-25T01:10:13;18.67;;;10.17;;
21175;SDS011;10746;50.178;8.186;2023-04-25T01:12:40;19.73;;;10.10;;
21175;SDS011;10746;50.178;8.186;2023-04-25T01:15:07;21.10;;;11.10;;
21175;SDS011;10746;50.178;8.186;2023-04-25T01:17:34;21.83;;;10.40;;
21175;SDS011;10746;50.178;8.186;2023-04-25T01:20:04;19.73;;;11.23;;
21175;SDS011;10746;50.178;8.186;2023-04-25T01:22:33;26.20;;;11.00;;
21175;SDS011;10746;50.178;8.186;2023-04-25T01:25:00;24.53;;;10.87;;
21175;SDS011;10746;50.178;8.186;2023-04-25T01:27:27;22.60;;;10.97;;
21175;SDS011;10746;50.178;8.186;2023-04-25T01:29:55;21.27;;;11.20;;
21175;SDS011;10746;50.178;8.186;2023-04-25T01:32:22;21.83;;;11.20;;
21175;SDS011;10746;50.178;8.186;2023-04-25T01:34:50;24.43;;;11.77;;
21175;SDS011;10746;50.178;8.186;2023-04-25T01:37:16;24.70;;;11.87;;
21175;SDS011;10746;50.178;8.186;2023-04-25T01:39:45;19.47;;;11.20;;
21175;SDS011;10746;50.178;8.186;2023-04-25T01:42:12;26.17;;;11.50;;
21175;SDS011;10746;50.178;8.186;2023-04-25T01:44:39;22.97;;;12.30;;
21175;SDS011;10746;50.178;8.186;2023-04-25T01:47:05;25.67;;;12.07;;
21175;SDS011;10746;50.178;8.186;2023-04-25T01:52:54;21.73;;;11.53;;
21175;SDS011;10746;50.178;8.186;2023-04-25T01:55:23;25.93;;;11.70;;
21175;SDS011;10746;50.178;8.186;2023-04-25T01:57:50;22.20;;;11.30;;
21175;SDS011;10746;50.178;8.186;2023-04-25T02:00:17;20.63;;;11.20;;
21175;SDS011;10746;50.178;8.186;2023-04-25T02:02:45;23.43;;;11.23;;
21175;SDS011;10746;50.178;8.186;2023-04-25T02:05:13;19.10;;;11.37;;
21175;SDS011;10746;50.178;8.186;2023-04-25T02:07:40;26.13;;;12.00;;
21175;SDS011;10746;50.178;8.186;2023-04-25T02:10:07;20.97;;;10.73;;
21175;SDS011;10746;50.178;8.186;2023-04-25T02:12:36;24.40;;;10.53;;
21175;SDS011;10746;50.178;8.186;2023-04-25T02:15:03;23.63;;;10.30;;
21175;SDS011;10746;50.178;8.186;2023-04-25T02:17:30;21.70;;;10.57;;
21175;SDS011;10746;50.178;8.186;2023-04-25T02:19:57;22.67;;;10.90;;
21175;SDS011;10746;50.178;8.186;2023-04-25T02:22:24;29.47;;;10.73;;
21175;SDS011;10746;50.178;8.186;2023-04-25T02:24:52;20.30;;;11.23;;
21175;SDS011;10746;50.178;8.186;2023-04-25T02:27:20;21.60;;;10.40;;
21175;SDS011;10746;50.178;8.186;2023-04-25T02:29:48;27.77;;;11.50;;
21175;SDS011;10746;50.178;8.186;2023-04-25T02:32:15;20.57;;;10.77;;
21175;SDS011;10746;50.178;8.186;2023-04-25T02:34:42;20.60;;;10.27;;
21175;SDS011;10746;50.178;8.186;2023-04-25T02:37:08;20.27;;;10.37;;
21175;SDS011;10746;50.178;8.186;2023-04-25T02:39:36;22.33;;;10.07;;
21175;SDS011;10746;50.178;8.186;2023-04-25T02:42:02;26.47;;;11.63;;
21175;SDS011;10746;50.178;8.186;2023-04-25T02:44:29;21.47;;;9.47;;
21175;SDS011;10746;50.178;8.186;2023-04-25T02:46:57;20.93;;;10.53;;
21175;SDS011;10746;50.178;8.186;2023-04-25T02:49:24;20.33;;;9.83;;
21175;SDS011;10746;50.178;8.186;2023-04-25T02:51:50;21.97;;;9.80;;
21175;SDS011;10746;50.178;8.186;2023-04-25T02:54:17;20.67;;;9.67;;
21175;SDS011;10746;50.178;8.186;2023-04-25T02:56:44;19.33;;;9.17;;
21175;SDS011;10746;50.178;8.186;2023-04-25T02:59:10;19.87;;;9.63;;
21175;SDS011;10746;50.178;8.186;2023-04-25T03:01:37;18.37;;;9.03;;
21175;SDS011;10746;50.178;8.186;2023-04-25T03:04:05;26.60;;;10.30;;
21175;SDS011;10746;50.178;8.186;2023-04-25T03:06:32;22.53;;;10.20;;
21175;SDS011;10746;50.178;8.186;2023-04-25T03:08:58;23.60;;;9.57;;
21175;SDS011;10746;50.178;8.186;2023-04-25T03:11:25;23.77;;;10.27;;
21175;SDS011;10746;50.178;8.186;2023-04-25T03:13:52;21.40;;;10.03;;
21175;SDS011;10746;50.178;8.186;2023-04-25T03:16:18;21.37;;;9.30;;
21175;SDS011;10746;50.178;8.186;2023-04-25T03:18:45;25.43;;;9.90;;
21175;SDS011;10746;50.178;8.186;2023-04-25T03:21:13;25.03;;;9.37;;
21175;SDS011;10746;50.178;8.186;2023-04-25T03:23:40;24.40;;;9.97;;
21175;SDS011;10746;50.178;8.186;2023-04-25T03:26:06;18.77;;;8.43;;
21175;SDS011;10746;50.178;8.186;2023-04-25T03:28:33;19.93;;;9.23;;
21175;SDS011;10746;50.178;8.186;2023-04-25T03:31:00;25.37;;;9.13;;
21175;SDS011;10746;50.178;8.186;2023-04-25T03:33:26;23.03;;;9.20;;
21175;SDS011;10746;50.178;8.186;2023-04-25T03:35:53;26.10;;;9.60;;
21175;SDS011;10746;50.178;8.186;2023-04-25T03:38:21;21.33;;;8.87;;
21175;SDS011;10746;50.178;8.186;2023-04-25T03:40:48;27.83;;;10.37;;
21175;SDS011;10746;50.178;8.186;2023-04-25T03:43:15;15.47;;;8.40;;
21175;SDS011;10746;50.178;8.186;2023-04-25T03:45:42;18.70;;;8.17;;
21175;SDS011;10746;50.178;8.186;2023-04-25T03:48:09;21.23;;;7.90;;
21175;SDS011;10746;50.178;8.186;2023-04-25T03:50:36;16.43;;;7.83;;
21175;SDS011;10746;50.178;8.186;2023-04-25T03:53:03;20.60;;;7.67;;
21175;SDS011;10746;50.178;8.186;2023-04-25T03:55:31;17.23;;;7.43;;
21175;SDS011;10746;50.178;8.186;2023-04-25T03:57:57;20.67;;;8.60;;
21175;SDS011;10746;50.178;8.186;2023-04-25T04:00:24;21.03;;;7.87;;
21175;SDS011;10746;50.178;8.186;2023-04-25T04:02:51;19.90;;;7.53;;
21175;SDS011;10746;50.178;8.186;2023-04-25T04:05:18;25.43;;;7.57;;
21175;SDS011;10746;50.178;8.186;2023-04-25T04:07:45;18.07;;;7.23;;
21175;SDS011;10746;50.178;8.186;2023-04-25T04:10:11;18.20;;;7.87;;
21175;SDS011;10746;50.178;8.186;2023-04-25T04:12:40;26.00;;;7.50;;
21175;SDS011;10746;50.178;8.186;2023-04-25T04:15:07;20.13;;;7.43;;
21175;SDS011;10746;50.178;8.186;2023-04-25T04:17:35;22.00;;;9.03;;
21175;SDS011;10746;50.178;8.186;2023-04-25T04:20:02;24.90;;;7.03;;
21175;SDS011;10746;50.178;8.186;2023-04-25T04:22:32;25.37;;;8.37;;
21175;SDS011;10746;50.178;8.186;2023-04-25T04:24:59;27.73;;;7.40;;
21175;SDS011;10746;50.178;8.186;2023-04-25T04:27:25;22.13;;;7.63;;
21175;SDS011;10746;50.178;8.186;2023-04-25T04:29:55;22.10;;;8.50;;
21175;SDS011;10746;50.178;8.186;2023-04-25T04:32:22;25.73;;;7.30;;
21175;SDS011;10746;50.178;8.186;2023-04-25T04:34:50;17.77;;;7.63;;
21175;SDS011;10746;50.178;8.186;2023-04-25T04:37:17;26.20;;;9.43;;
21175;SDS011;10746;50.178;8.186;2023-04-25T04:39:43;19.03;;;7.83;;
21175;SDS011;10746;50.178;8.186;2023-04-25T04:42:11;21.23;;;7.50;;
21175;SDS011;10746;50.178;8.186;2023-04-25T04:44:38;14.83;;;7.27;;
21175;SDS011;10746;50.178;8.186;2023-04-25T04:47:06;23.33;;;7.43;;
21175;SDS011;10746;50.178;8.186;2023-04-25T04:49:33;22.00;;;7.80;;
21175;SDS011;10746;50.178;8.186;2023-04-25T04:51:59;26.80;;;7.77;;
21175;SDS011;10746;50.178;8.186;2023-04-25T04:54:26;20.13;;;8.40;;
21175;SDS011;10746;50.178;8.186;2023-04-25T04:56:53;19.27;;;7.73;;
21175;SDS011;10746;50.178;8.186;2023-04-25T04:59:19;21.50;;;8.20;;
21175;SDS011;10746;50.178;8.186;2023-04-25T05:01:46;22.67;;;8.03;;
21175;SDS011;10746;50.178;8.186;2023-04-25T05:04:14;22.03;;;8.07;;
21175;SDS011;10746;50.178;8.186;2023-04-25T05:06:41;20.50;;;8.43;;
21175;SDS011;10746;50.178;8.186;2023-04-25T05:09:07;19.73;;;8.73;;
21175;SDS011;10746;50.178;8.186;2023-04-25T05:11:34;23.37;;;8.10;;
21175;SDS011;10746;50.178;8.186;2023-04-25T05:14:01;20.77;;;7.87;;
21175;SDS011;10746;50.178;8.186;2023-04-25T05:16:28;21.57;;;8.73;;
21175;SDS011;10746;50.178;8.186;2023-04-25T05:18:54;22.93;;;7.83;;
21175;SDS011;10746;50.178;8.186;2023-04-25T05:21:22;16.17;;;7.83;;
21175;SDS011;10746;50.178;8.186;2023-04-25T05:23:49;22.20;;;8.17;;
21175;SDS011;10746;50.178;8.186;2023-04-25T05:26:16;24.57;;;7.37;;
21175;SDS011;10746;50.178;8.186;2023-04-25T05:28:42;18.87;;;8.07;;
21175;SDS011;10746;50.178;8.186;2023-04-25T05:31:09;27.27;;;8.37;;
21175;SDS011;10746;50.178;8.186;2023-04-25T05:33:36;26.80;;;8.37;;
21175;SDS011;10746;50.178;8.186;2023-04-25T05:36:03;20.70;;;7.80;;
21175;SDS011;10746;50.178;8.186;2023-04-25T05:38:32;20.13;;;7.67;;
21175;SDS011;10746;50.178;8.186;2023-04-25T05:40:59;27.83;;;7.73;;
21175;SDS011;10746;50.178;8.186;2023-04-25T05:43:26;18.13;;;7.90;;
21175;SDS011;10746;50.178;8.186;2023-04-25T05:45:52;32.30;;;8.93;;
21175;SDS011;10746;50.178;8.186;2023-04-25T05:48:19;25.40;;;7.07;;
21175;SDS011;10746;50.178;8.186;2023-04-25T05:50:46;16.80;;;7.23;;
21175;SDS011;10746;50.178;8.186;2023-04-25T05:53:12;24.63;;;7.93;;
21175;SDS011;10746;50.178;8.186;2023-04-25T05:55:40;20.23;;;7.70;;
21175;SDS011;10746;50.178;8.186;2023-04-25T05:58:07;17.83;;;6.83;;
21175;SDS011;10746;50.178;8.186;2023-04-25T06:00:34;19.90;;;7.57;;
21175;SDS011;10746;50.178;8.186;2023-04-25T06:03:01;16.23;;;6.33;;
21175;SDS011;10746;50.178;8.186;2023-04-25T06:05:28;28.13;;;7.07;;
21175;SDS011;10746;50.178;8.186;2023-04-25T06:07:54;19.47;;;6.37;;
21175;SDS011;10746;50.178;8.186;2023-04-25T06:10:21;18.47;;;6.20;;
21175;SDS011;10746;50.178;8.186;2023-04-25T06:12:50;19.90;;;6.20;;
21175;SDS011;10746;50.178;8.186;2023-04-25T06:15:16;16.57;;;6.17;;
21175;SDS011;10746;50.178;8.186;2023-04-25T06:17:43;15.73;;;6.13;;
21175;SDS011;10746;50.178;8.186;2023-04-25T06:20:10;13.67;;;5.83;;
21175;SDS011;10746;50.178;8.186;2023-04-25T06:22:37;11.33;;;5.60;;
21175;SDS011;10746;50.178;8.186;2023-04-25T06:25:04;11.63;;;5.60;;
21175;SDS011;10746;50.178;8.186;2023-04-25T06:27:32;11.90;;;5.87;;
21175;SDS011;10746;50.178;8.186;2023-04-25T06:30:00;14.57;;;6.60;;
21175;SDS011;10746;50.178;8.186;2023-04-25T06:32:27;15.77;;;6.20;;
21175;SDS011;10746;50.178;8.186;2023-04-25T06:34:54;12.90;;;5.00;;
21175;SDS011;10746;50.178;8.186;2023-04-25T06:37:21;16.00;;;5.87;;
21175;SDS011;10746;50.178;8.186;2023-04-25T06:39:48;17.27;;;6.63;;
21175;SDS011;10746;50.178;8.186;2023-04-25T06:42:15;12.70;;;5.63;;
21175;SDS011;10746;50.178;8.186;2023-04-25T06:44:41;12.73;;;5.17;;
21175;SDS011;10746;50.178;8.186;2023-04-25T06:47:09;12.90;;;4.83;;
21175;SDS011;10746;50.178;8.186;2023-04-25T06:49:36;11.90;;;4.73;;
21175;SDS011;10746;50.178;8.186;2023-04-25T06:52:03;13.10;;;5.60;;
21175;SDS011;10746;50.178;8.186;2023-04-25T06:54:29;9.33;;;4.90;;
21175;SDS011;10746;50.178;8.186;2023-04-25T06:56:56;11.53;;;5.23;;
21175;SDS011;10746;50.178;8.186;2023-04-25T06:59:23;19.00;;;5.27;;
21175;SDS011;10746;50.178;8.186;2023-04-25T07:01:50;10.17;;;4.67;;
21175;SDS011;10746;50.178;8.186;2023-04-25T07:04:18;11.13;;;4.80;;
21175;SDS011;10746;50.178;8.186;2023-04-25T07:06:44;10.97;;;4.80;;
21175;SDS011;10746;50.178;8.186;2023-04-25T07:09:13;12.37;;;5.60;;
21175;SDS011;10746;50.178;8.186;2023-04-25T07:11:39;8.87;;;4.37;;
21175;SDS011;10746;50.178;8.186;2023-04-25T07:14:06;11.10;;;4.87;;
21175;SDS011;10746;50.178;8.186;2023-04-25T07:16:33;8.37;;;4.30;;
21175;SDS011;10746;50.178;8.186;2023-04-25T07:19:00;14.00;;;4.57;;
21175;SDS011;10746;50.178;8.186;2023-04-25T07:21:28;10.60;;;3.80;;
21175;SDS011;10746;50.178;8.186;2023-04-25T07:23:55;7.90;;;4.63;;
21175;SDS011;10746;50.178;8.186;2023-04-25T07:26:22;6.53;;;4.00;;
21175;SDS011;10746;50.178;8.186;2023-04-25T07:28:49;15.30;;;3.77;;
21175;SDS011;10746;50.178;8.186;2023-04-25T07:31:16;9.73;;;4.07;;
21175;SDS011;10746;50.178;8.186;2023-04-25T07:33:44;7.90;;;3.83;;
21175;SDS011;10746;50.178;8.186;2023-04-25T07:36:11;5.13;;;3.33;;
21175;SDS011;10746;50.178;8.186;2023-04-25T07:38:39;6.83;;;3.60;;
21175;SDS011;10746;50.178;8.186;2023-04-25T07:41:05;6.57;;;3.87;;
21175;SDS011;10746;50.178;8.186;2023-04-25T07:43:32;10.13;;;3.80;;
21175;SDS011;10746;50.178;8.186;2023-04-25T07:45:59;5.33;;;3.60;;
21175;SDS011;10746;50.178;8.186;2023-04-25T07:48:26;7.37;;;3.63;;
21175;SDS011;10746;50.178;8.186;2023-04-25T07:50:52;10.67;;;4.23;;
21175;SDS011;10746;50.178;8.186;2023-04-25T07:53:19;7.37;;;3.30;;
21175;SDS011;10746;50.178;8.186;2023-04-25T07:55:47;9.07;;;3.97;;
21175;SDS011;10746;50.178;8.186;2023-04-25T07:58:14;10.43;;;4.00;;
21175;SDS011;10746;50.178;8.186;2023-04-25T08:00:46;9.07;;;3.30;;
21175;SDS011;10746;50.178;8.186;2023-04-25T08:03:12;10.53;;;3.50;;
21175;SDS011;10746;50.178;8.186;2023-04-25T08:05:39;12.67;;;3.93;;
21175;SDS011;10746;50.178;8.186;2023-04-25T08:08:06;12.60;;;4.17;;
21175;SDS011;10746;50.178;8.186;2023-04-25T08:10:33;9.30;;;4.17;;
21175;SDS011;10746;50.178;8.186;2023-04-25T08:13:01;8.67;;;4.93;;
21175;SDS011;10746;50.178;8.186;2023-04-25T08:15:27;7.73;;;5.30;;
21175;SDS011;10746;50.178;8.186;2023-04-25T08:17:54;10.20;;;5.30;;
21175;SDS011;10746;50.178;8.186;2023-04-25T08:20:21;12.27;;;5.70;;
21175;SDS011;10746;50.178;8.186;2023-04-25T08:22:48;9.27;;;5.43;;
21175;SDS011;10746;50.178;8.186;2023-04-25T08:25:15;8.97;;;6.03;;
21175;SDS011;10746;50.178;8.186;2023-04-25T08:27:41;17.27;;;6.20;;
21175;SDS011;10746;50.178;8.186;2023-04-25T08:30:10;8.80;;;5.23;;
21175;SDS011;10746;50.178;8.186;2023-04-25T08:32:37;13.37;;;5.40;;
21175;SDS011;10746;50.178;8.186;2023-04-25T08:35:04;19.00;;;5.70;;
21175;SDS011;10746;50.178;8.186;2023-04-25T08:37:31;12.50;;;5.27;;
21175;SDS011;10746;50.178;8.186;2023-04-25T08:39:58;12.77;;;5.80;;
21175;SDS011;10746;50.178;8.186;2023-04-25T08:42:25;13.73;;;5.70;;
21175;SDS011;10746;50.178;8.186;2023-04-25T08:44:53;12.03;;;5.27;;
21175;SDS011;10746;50.178;8.186;2023-04-25T08:47:22;10.03;;;5.53;;
21175;SDS011;10746;50.178;8.186;2023-04-25T08:49:50;16.83;;;5.33;;
21175;SDS011;10746;50.178;8.186;2023-04-25T08:52:20;10.27;;;5.67;;
21175;SDS011;10746;50.178;8.186;2023-04-25T08:54:48;9.93;;;4.30;;
21175;SDS011;10746;50.178;8.186;2023-04-25T08:57:15;8.67;;;5.13;;
21175;SDS011;10746;50.178;8.186;2023-04-25T08:59:44;7.80;;;4.57;;
21175;SDS011;10746;50.178;8.186;2023-04-25T09:02:13;11.17;;;4.67;;
21175;SDS011;10746;50.178;8.186;2023-04-25T09:04:43;11.23;;;5.33;;
21175;SDS011;10746;50.178;8.186;2023-04-25T09:07:10;8.43;;;5.33;;
21175;SDS011;10746;50.178;8.186;2023-04-25T09:09:37;8.20;;;4.93;;
21175;SDS011;10746;50.178;8.186;2023-04-25T09:12:04;9.45;;;4.75;;
21175;SDS011;10746;50.178;8.186;2023-04-25T09:14:31;9.90;;;5.50;;
21175;SDS011;10746;50.178;8.186;2023-04-25T09:16:59;9.53;;;5.30;;
21175;SDS011;10746;50.178;8.186;2023-04-25T09:19:27;8.30;;;5.30;;
21175;SDS011;10746;50.178;8.186;2023-04-25T09:21:57;12.10;;;5.83;;
21175;SDS011;10746;50.178;8.186;2023-04-25T09:24:31;15.53;;;5.73;;
21175;SDS011;10746;50.178;8.186;2023-04-25T09:27:03;14.70;;;6.20;;
21175;SDS011;10746;50.178;8.186;2023-04-25T09:29:31;15.43;;;5.70;;
21175;SDS011;10746;50.178;8.186;2023-04-25T09:32:11;10.87;;;5.73;;
21175;SDS011;10746;50.178;8.186;2023-04-25T09:34:41;10.10;;;5.60;;
21175;SDS011;10746;50.178;8.186;2023-04-25T09:37:10;16.73;;;5.97;;
21175;SDS011;10746;50.178;8.186;2023-04-25T09:39:38;14.73;;;5.97;;
21175;SDS011;10746;50.178;8.186;2023-04-25T09:42:05;10.50;;;5.23;;
21175;SDS011;10746;50.178;8.186;2023-04-25T09:44:31;8.83;;;5.67;;
21175;SDS011;10746;50.178;8.186;2023-04-25T09:46:58;16.33;;;5.27;;
21175;SDS011;10746;50.178;8.186;2023-04-25T09:49:25;8.73;;;4.63;;
21175;SDS011;10746;50.178;8.186;2023-04-25T09:51:56;9.37;;;4.87;;
21175;SDS011;10746;50.178;8.186;2023-04-25T09:54:25;7.63;;;4.20;;
21175;SDS011;10746;50.178;8.186;2023-04-25T09:56:53;8.27;;;4.10;;
21175;SDS011;10746;50.178;8.186;2023-04-25T09:59:20;9.27;;;4.70;;
21175;SDS011;10746;50.178;8.186;2023-04-25T10:01:48;9.97;;;4.87;;
21175;SDS011;10746;50.178;8.186;2023-04-25T10:04:18;11.13;;;4.70;;
21175;SDS011;10746;50.178;8.186;2023-04-25T10:06:49;7.27;;;4.43;;
21175;SDS011;10746;50.178;8.186;2023-04-25T10:09:17;8.83;;;4.63;;
21175;SDS011;10746;50.178;8.186;2023-04-25T10:11:47;8.18;;;4.57;;
21175;SDS011;10746;50.178;8.186;2023-04-25T10:14:14;12.97;;;5.50;;
21175;SDS011;10746;50.178;8.186;2023-04-25T10:16:42;14.83;;;4.93;;
21175;SDS011;10746;50.178;8.186;2023-04-25T10:19:10;8.63;;;4.07;;
21175;SDS011;10746;50.178;8.186;2023-04-25T10:21:37;6.77;;;4.20;;
21175;SDS011;10746;50.178;8.186;2023-04-25T10:24:11;9.00;;;4.37;;
21175;SDS011;10746;50.178;8.186;2023-04-25T10:26:38;10.37;;;4.33;;
21175;SDS011;10746;50.178;8.186;2023-04-25T10:29:07;9.50;;;4.47;;
21175;SDS011;10746;50.178;8.186;2023-04-25T10:31:44;13.10;;;4.63;;
21175;SDS011;10746;50.178;8.186;2023-04-25T10:34:11;11.20;;;4.47;;
21175;SDS011;10746;50.178;8.186;2023-04-25T10:36:38;11.47;;;4.40;;
21175;SDS011;10746;50.178;8.186;2023-04-25T10:39:06;8.30;;;3.97;;
21175;SDS011;10746;50.178;8.186;2023-04-25T10:41:45;12.40;;;4.63;;
21175;SDS011;10746;50.178;8.186;2023-04-25T10:44:13;13.60;;;4.70;;
21175;SDS011;10746;50.178;8.186;2023-04-25T10:46:40;11.43;;;4.10;;
21175;SDS011;10746;50.178;8.186;2023-04-25T10:49:07;11.23;;;4.73;;
21175;SDS011;10746;50.178;8.186;2023-04-25T10:51:35;8.63;;;4.20;;
21175;SDS011;10746;50.178;8.186;2023-04-25T10:54:03;8.40;;;4.27;;
21175;SDS011;10746;50.178;8.186;2023-04-25T10:56:32;7.77;;;4.10;;
21175;SDS011;10746;50.178;8.186;2023-04-25T10:59:07;9.00;;;4.03;;
21175;SDS011;10746;50.178;8.186;2023-04-25T11:01:37;12.87;;;3.80;;
21175;SDS011;10746;50.178;8.186;2023-04-25T11:04:05;12.50;;;4.10;;
21175;SDS011;10746;50.178;8.186;2023-04-25T11:06:35;10.23;;;3.90;;
21175;SDS011;10746;50.178;8.186;2023-04-25T11:09:12;10.03;;;3.87;;
21175;SDS011;10746;50.178;8.186;2023-04-25T11:11:39;13.20;;;3.90;;
21175;SDS011;10746;50.178;8.186;2023-04-25T11:14:06;8.13;;;3.70;;
21175;SDS011;10746;50.178;8.186;2023-04-25T11:16:32;10.40;;;3.87;;
21175;SDS011;10746;50.178;8.186;2023-04-25T11:19:02;6.30;;;3.93;;
21175;SDS011;10746;50.178;8.186;2023-04-25T11:21:30;8.03;;;3.70;;
21175;SDS011;10746;50.178;8.186;2023-04-25T11:23:57;11.80;;;3.70;;
21175;SDS011;10746;50.178;8.186;2023-04-25T11:26:25;6.80;;;3.87;;
21175;SDS011;10746;50.178;8.186;2023-04-25T11:28:51;13.97;;;3.80;;
21175;SDS011;10746;50.178;8.186;2023-04-25T11:31:24;8.83;;;3.57;;
21175;SDS011;10746;50.178;8.186;2023-04-25T11:33:52;8.00;;;3.63;;
21175;SDS011;10746;50.178;8.186;2023-04-25T11:36:22;8.60;;;3.43;;
21175;SDS011;10746;50.178;8.186;2023-04-25T11:38:48;7.60;;;3.13;;
21175;SDS011;10746;50.178;8.186;2023-04-25T11:41:16;10.17;;;3.17;;
21175;SDS011;10746;50.178;8.186;2023-04-25T11:43:43;6.50;;;3.10;;
21175;SDS011;10746;50.178;8.186;2023-04-25T11:46:10;5.93;;;3.13;;
21175;SDS011;10746;50.178;8.186;2023-04-25T11:48:37;6.95;;;3.20;;
21175;SDS011;10746;50.178;8.186;2023-04-25T11:51:05;8.80;;;3.43;;
21175;SDS011;10746;50.178;8.186;2023-04-25T11:53:33;6.00;;;3.60;;
21175;SDS011;10746;50.178;8.186;2023-04-25T11:56:00;4.23;;;3.40;;
21175;SDS011;10746;50.178;8.186;2023-04-25T11:58:27;11.88;;;3.60;;
21175;SDS011;10746;50.178;8.186;2023-04-25T12:00:54;5.97;;;3.20;;
21175;SDS011;10746;50.178;8.186;2023-04-25T12:03:23;10.27;;;3.27;;
21175;SDS011;10746;50.178;8.186;2023-04-25T12:05:52;12.83;;;3.80;;
21175;SDS011;10746;50.178;8.186;2023-04-25T12:08:19;8.97;;;3.37;;
21175;SDS011;10746;50.178;8.186;2023-04-25T12:10:47;3.40;;;3.10;;
21175;SDS011;10746;50.178;8.186;2023-04-25T12:13:20;5.70;;;3.07;;
21175;SDS011;10746;50.178;8.186;2023-04-25T12:15:47;10.93;;;3.50;;
21175;SDS011;10746;50.178;8.186;2023-04-25T12:18:14;11.87;;;4.20;;
21175;SDS011;10746;50.178;8.186;2023-04-25T12:20:44;8.43;;;3.80;;
21175;SDS011;10746;50.178;8.186;2023-04-25T12:23:11;9.20;;;3.63;;
21175;SDS011;10746;50.178;8.186;2023-04-25T12:25:38;8.33;;;3.40;;
21175;SDS011;10746;50.178;8.186;2023-04-25T12:28:11;9.50;;;3.88;;
21175;SDS011;10746;50.178;8.186;2023-04-25T12:30:54;10.18;;;3.30;;
21175;SDS011;10746;50.178;8.186;2023-04-25T12:33:22;10.52;;;3.33;;
21175;SDS011;10746;50.178;8.186;2023-04-25T12:35:49;10.88;;;4.53;;
21175;SDS011;10746;50.178;8.186;2023-04-25T12:38:26;11.68;;;3.10;;
21175;SDS011;10746;50.178;8.186;2023-04-25T12:40:54;10.70;;;3.17;;
21175;SDS011;10746;50.178;8.186;2023-04-25T12:43:22;5.60;;;3.20;;
21175;SDS011;10746;50.178;8.186;2023-04-25T12:45:49;3.83;;;3.00;;
21175;SDS011;10746;50.178;8.186;2023-04-25T12:48:16;5.88;;;3.20;;
21175;SDS011;10746;50.178;8.186;2023-04-25T12:50:43;9.68;;;3.70;;
21175;SDS011;10746;50.178;8.186;2023-04-25T12:53:12;7.82;;;3.55;;
21175;SDS011;10746;50.178;8.186;2023-04-25T12:55:39;6.60;;;3.47;;
21175;SDS011;10746;50.178;8.186;2023-04-25T12:58:06;9.23;;;3.60;;
21175;SDS011;10746;50.178;8.186;2023-04-25T13:00:34;8.68;;;3.40;;
21175;SDS011;10746;50.178;8.186;2023-04-25T13:03:01;6.53;;;3.30;;
21175;SDS011;10746;50.178;8.186;2023-04-25T13:05:29;4.13;;;2.97;;
21175;SDS011;10746;50.178;8.186;2023-04-25T13:07:56;6.15;;;3.40;;
21175;SDS011;10746;50.178;8.186;2023-04-25T13:10:23;10.10;;;3.25;;
21175;SDS011;10746;50.178;8.186;2023-04-25T13:12:50;10.75;;;3.25;;
21175;SDS011;10746;50.178;8.186;2023-04-25T13:15:16;6.67;;;3.20;;
21175;SDS011;10746;50.178;8.186;2023-04-25T13:17:44;7.83;;;3.37;;
21175;SDS011;10746;50.178;8.186;2023-04-25T13:20:11;6.05;;;2.95;;
21175;SDS011;10746;50.178;8.186;2023-04-25T13:22:40;7.50;;;3.38;;
21175;SDS011;10746;50.178;8.186;2023-04-25T13:25:07;7.07;;;2.70;;
21175;SDS011;10746;50.178;8.186;2023-04-25T13:27:34;9.73;;;3.22;;
21175;SDS011;10746;50.178;8.186;2023-04-25T13:30:02;9.27;;;3.72;;
21175;SDS011;10746;50.178;8.186;2023-04-25T13:32:32;9.05;;;3.20;;
21175;SDS011;10746;50.178;8.186;2023-04-25T13:35:02;6.35;;;3.20;;
21175;SDS011;10746;50.178;8.186;2023-04-25T13:37:30;5.22;;;2.90;;
21175;SDS011;10746;50.178;8.186;2023-04-25T13:39:58;8.43;;;2.97;;
21175;SDS011;10746;50.178;8.186;2023-04-25T13:42:25;7.13;;;3.15;;
21175;SDS011;10746;50.178;8.186;2023-04-25T13:44:52;10.32;;;3.15;;
21175;SDS011;10746;50.178;8.186;2023-04-25T13:47:18;5.47;;;2.97;;
21175;SDS011;10746;50.178;8.186;2023-04-25T13:49:45;5.07;;;3.03;;
21175;SDS011;10746;50.178;8.186;2023-04-25T13:52:13;3.90;;;2.22;;
21175;SDS011;10746;50.178;8.186;2023-04-25T13:54:40;5.32;;;3.80;;
21175;SDS011;10746;50.178;8.186;2023-04-25T13:57:06;6.82;;;2.88;;
21175;SDS011;10746;50.178;8.186;2023-04-25T13:59:33;8.18;;;2.97;;
21175;SDS011;10746;50.178;8.186;2023-04-25T14:02:00;4.07;;;2.10;;
21175;SDS011;10746;50.178;8.186;2023-04-25T14:04:27;5.78;;;3.25;;
21175;SDS011;10746;50.178;8.186;2023-04-25T14:06:53;7.35;;;3.30;;
21175;SDS011;10746;50.178;8.186;2023-04-25T14:09:22;5.43;;;2.92;;
21175;SDS011;10746;50.178;8.186;2023-04-25T14:11:50;4.85;;;2.95;;
21175;SDS011;10746;50.178;8.186;2023-04-25T14:14:17;10.93;;;2.88;;
21175;SDS011;10746;50.178;8.186;2023-04-25T14:16:44;5.82;;;3.13;;
21175;SDS011;10746;50.178;8.186;2023-04-25T14:19:11;4.53;;;2.90;;
21175;SDS011;10746;50.178;8.186;2023-04-25T14:21:37;6.30;;;3.22;;
21175;SDS011;10746;50.178;8.186;2023-04-25T14:24:04;7.10;;;3.50;;
21175;SDS011;10746;50.178;8.186;2023-04-25T14:26:33;8.60;;;3.08;;
21175;SDS011;10746;50.178;8.186;2023-04-25T14:29:00;6.65;;;2.85;;
21175;SDS011;10746;50.178;8.186;2023-04-25T14:31:27;9.33;;;2.93;;
21175;SDS011;10746;50.178;8.186;2023-04-25T14:33:53;11.53;;;3.07;;
21175;SDS011;10746;50.178;8.186;2023-04-25T14:36:20;11.90;;;3.35;;
21175;SDS011;10746;50.178;8.186;2023-04-25T14:38:47;5.43;;;2.70;;
21175;SDS011;10746;50.178;8.186;2023-04-25T14:41:13;10.15;;;2.92;;
21175;SDS011;10746;50.178;8.186;2023-04-25T14:43:41;7.13;;;3.10;;